Pagrindinis puslapis
METAR-TAF:

METAR-TAF

Oro uostai :

Wainwright, Aliaska, Jungtinės Amerikos Valstijos

platuma: 64-50N, ilguma: 147-37W, Aukštis: 137 m

Dabartinis oras

Ataskaita buvo paskelbta 1 valandą ir 8 minutes, ne 19:58 UTC
Vėjas 3 kt iš Rytų
Temperatūra -8°C
Drėgmė 79%
Slėgis 1037 hPa
Matomumas: 16.1 km
Giedras dangus

METAR: PAFB 221958Z AUTO 08003KT 10SM CLR M08/M11 A3061 RMK AO2 SLP376 T10801111 $

Laikas: 13:06 (21:06 UTC)

Prognozė

Ataskaita buvo paskelbta 15 valandos ir 6 minutes, ne 06:00 UTC
Prognozė galioja nuo 22 metu 06 UTC su 23 metu 12 UTC
Vėjas 2 kt nuo kintamojo kryptimis
Matomumas 10 km arba daugiau
Su prošvaistėmis ne aukštis 2000 ft
Tapsmas
nuo 22 metu 10 UTC su 22 metu 11 UTC
Vėjas 4 kt iš Rytų
Matomumas 10 km arba daugiau
Mažai debesys ne aukštis 2500 ft
Tapsmas
nuo 22 metu 17 UTC su 22 metu 18 UTC
Vėjas 10 kt iš Rytų
Matomumas 10 km arba daugiau
Giedras dangus

TAF: PAFB 220600Z 2206/2312 VRB02KT 9999 BKN020 QNH3068INS BECMG 2210/2211 09004KT 9999 FEW025 QNH3064NS BECMG 2217/2218 09010KT 9999 SKC QNH3054INS TXM01/2300Z TNM06/2214Z

Orai ataskaitas ir orų prognozės (METAR, TAF).

turimą stotys yra geltonos ir raudonos taškus žemėlapyje.

Perkelti pele per norėdami pamatyti stoties vardą.

Tada spustelėkite, norėdami matyti oro stebėjimo ir prognozės.

Norėdami pakeisti žemėlapį: spustelėkite ant žalios mygtukų su juodo kryžiaus žemyn,; žalią mygtuką su brūkšneliu, jei norite nutolinti; arba žalių rodyklių gretimoms žemėlapius.


METAR-TAF: